createdAt,value
2023-01-21T00:01:14.771Z,67.90
2023-01-21T00:03:41.879Z,67.94
2023-01-21T00:06:09.234Z,67.90
2023-01-21T00:08:36.230Z,67.99
2023-01-21T00:11:14.669Z,67.97
2023-01-21T00:13:42.337Z,68.02
2023-01-21T00:16:09.817Z,67.99
2023-01-21T00:18:37.141Z,68.08
2023-01-21T00:21:04.248Z,68.22
2023-01-21T00:23:31.293Z,68.12
2023-01-21T00:26:02.590Z,68.07
2023-01-21T00:28:30.756Z,68.04
2023-01-21T00:31:01.935Z,67.95
2023-01-21T00:33:29.077Z,68.06
2023-01-21T00:36:02.326Z,68.13
2023-01-21T00:38:29.704Z,68.06
2023-01-21T00:41:26.888Z,68.02
2023-01-21T00:43:53.861Z,68.12
2023-01-21T00:46:20.956Z,68.19
2023-01-21T00:48:48.005Z,68.23
2023-01-21T00:51:14.986Z,68.25
2023-01-21T00:53:42.302Z,68.22
2023-01-21T00:56:11.294Z,68.29
2023-01-21T00:58:38.600Z,68.23
2023-01-21T01:01:09.741Z,68.28
2023-01-21T01:03:37.496Z,68.23
2023-01-21T01:06:09.710Z,68.29
2023-01-21T01:08:36.721Z,68.25
2023-01-21T01:11:03.883Z,68.18
2023-01-21T01:13:30.953Z,68.12
2023-01-21T01:15:58.980Z,68.00
2023-01-21T01:18:26.789Z,67.94
2023-01-21T01:20:55.051Z,67.90
2023-01-21T01:23:22.112Z,67.84
2023-01-21T01:26:00.452Z,67.82
2023-01-21T01:28:27.962Z,67.73
2023-01-21T01:30:55.182Z,67.65
2023-01-21T01:33:22.317Z,67.65
2023-01-21T01:35:49.689Z,67.58
2023-01-21T01:38:17.508Z,67.46
2023-01-21T01:40:45.613Z,67.39
2023-01-21T01:43:19.587Z,67.37
2023-01-21T01:45:47.747Z,67.32
2023-01-21T01:48:18.135Z,67.18
2023-01-21T01:50:45.160Z,67.19
2023-01-21T01:53:12.153Z,67.05
2023-01-21T01:55:39.176Z,67.04
2023-01-21T01:58:08.157Z,67.03
2023-01-21T02:00:35.312Z,66.96
2023-01-21T02:03:21.819Z,66.93
2023-01-21T02:05:48.868Z,66.88
2023-01-21T02:08:15.867Z,66.87
2023-01-21T02:10:42.825Z,66.74
2023-01-21T02:13:09.790Z,66.72
2023-01-21T02:15:50.617Z,66.67
2023-01-21T02:18:24.004Z,66.68
2023-01-21T02:21:50.771Z,66.60
2023-01-21T02:25:06.235Z,66.50
2023-01-21T02:27:44.965Z,66.39
2023-01-21T02:30:30.939Z,66.24
2023-01-21T02:33:16.886Z,66.30
2023-01-21T02:35:48.837Z,66.28
2023-01-21T02:38:15.656Z,66.31
2023-01-21T02:40:55.606Z,66.12
2023-01-21T02:43:32.521Z,66.07
2023-01-21T02:46:29.033Z,67.49
2023-01-21T02:49:15.207Z,68.19
2023-01-21T02:51:47.086Z,68.52
2023-01-21T02:54:42.656Z,68.62
2023-01-21T02:57:12.118Z,68.82
2023-01-21T02:59:40.146Z,68.95
2023-01-21T03:02:30.514Z,68.92
2023-01-21T03:05:26.958Z,68.97
2023-01-21T03:08:06.044Z,68.92
2023-01-21T03:10:39.044Z,68.91
2023-01-21T03:13:09.641Z,68.93
2023-01-21T03:15:56.992Z,68.73
2023-01-21T03:18:36.826Z,67.23
2023-01-21T03:21:06.331Z,66.65
2023-01-21T03:23:35.746Z,66.30
2023-01-21T03:26:02.871Z,66.04
2023-01-21T03:28:32.230Z,65.95
2023-01-21T03:31:05.092Z,65.79
2023-01-21T03:33:34.218Z,65.77
2023-01-21T03:36:01.962Z,65.72
2023-01-21T03:38:32.048Z,65.64
2023-01-21T03:41:07.950Z,65.66
2023-01-21T03:43:34.938Z,65.62
2023-01-21T03:46:09.362Z,65.47
2023-01-21T03:49:01.517Z,65.88
2023-01-21T03:51:37.110Z,67.27
2023-01-21T03:54:04.162Z,67.74
2023-01-21T03:56:31.324Z,67.84
2023-01-21T03:58:58.250Z,68.14
2023-01-21T04:01:25.260Z,68.19
2023-01-21T04:03:52.353Z,68.28
2023-01-21T04:06:21.775Z,68.38
2023-01-21T04:08:48.829Z,68.27
2023-01-21T04:11:16.322Z,68.29
2023-01-21T04:13:43.331Z,68.31
2023-01-21T04:16:10.381Z,68.15
2023-01-21T04:18:37.751Z,68.14
2023-01-21T04:21:04.716Z,68.15
2023-01-21T04:23:32.180Z,68.15
2023-01-21T04:25:59.182Z,68.12
2023-01-21T04:28:26.141Z,68.11
2023-01-21T04:30:54.320Z,67.96
2023-01-21T04:33:21.926Z,67.70
2023-01-21T04:35:48.915Z,67.79
2023-01-21T04:38:16.009Z,67.00
2023-01-21T04:40:43.049Z,65.80
2023-01-21T04:43:10.073Z,65.37
2023-01-21T04:45:37.135Z,65.13
2023-01-21T04:48:04.234Z,64.80
2023-01-21T04:50:31.228Z,64.50
2023-01-21T04:53:01.208Z,64.45
2023-01-21T04:55:30.640Z,64.17
2023-01-21T04:57:57.630Z,64.03
2023-01-21T05:00:24.732Z,64.13
2023-01-21T05:02:51.752Z,63.98
2023-01-21T05:05:20.054Z,64.03
2023-01-21T05:07:47.240Z,63.99
2023-01-21T05:10:18.055Z,64.08
2023-01-21T05:12:45.236Z,64.07
2023-01-21T05:15:12.248Z,64.04
2023-01-21T05:17:39.267Z,64.03
2023-01-21T05:20:06.781Z,63.97
2023-01-21T05:22:33.844Z,64.00
2023-01-21T05:25:00.945Z,64.00
2023-01-21T05:27:28.170Z,63.99
2023-01-21T05:29:59.814Z,64.00
2023-01-21T05:32:26.811Z,63.93
2023-01-21T05:34:53.837Z,64.06
2023-01-21T05:37:20.794Z,63.95
2023-01-21T05:39:47.852Z,64.09
2023-01-21T05:42:14.843Z,64.01
2023-01-21T05:44:41.856Z,64.04
2023-01-21T05:47:09.117Z,64.06
2023-01-21T05:49:36.179Z,64.09
2023-01-21T05:52:03.181Z,63.96
2023-01-21T05:54:30.260Z,63.92
2023-01-21T05:56:57.281Z,63.84
2023-01-21T05:59:25.036Z,63.83
2023-01-21T06:01:52.498Z,63.80
2023-01-21T06:04:19.551Z,63.75
2023-01-21T06:06:46.544Z,63.91
2023-01-21T06:09:14.160Z,63.90
2023-01-21T06:11:42.341Z,63.82
2023-01-21T06:14:09.381Z,63.84
2023-01-21T06:16:36.440Z,63.89
2023-01-21T06:19:03.510Z,63.77
2023-01-21T06:21:30.545Z,63.79
2023-01-21T06:23:57.666Z,63.74
2023-01-21T06:26:26.963Z,63.85
2023-01-21T06:28:57.207Z,63.73
2023-01-21T06:31:24.492Z,63.70
2023-01-21T06:33:51.497Z,63.70
2023-01-21T06:36:18.689Z,63.72
2023-01-21T06:38:45.674Z,63.65
2023-01-21T06:41:12.697Z,63.60
2023-01-21T06:43:39.686Z,63.45
2023-01-21T06:46:10.301Z,63.61
2023-01-21T06:48:37.625Z,63.53
2023-01-21T06:51:04.807Z,63.58
2023-01-21T06:53:31.791Z,63.51
2023-01-21T06:55:58.734Z,63.37
2023-01-21T06:58:25.766Z,63.33
2023-01-21T07:00:56.570Z,63.31
2023-01-21T07:03:23.617Z,63.27
2023-01-21T07:05:50.623Z,63.35
2023-01-21T07:08:17.543Z,63.35
2023-01-21T07:10:47.462Z,63.26
2023-01-21T07:13:14.782Z,63.21
2023-01-21T07:15:43.975Z,63.21
2023-01-21T07:18:11.104Z,63.10
2023-01-21T07:20:40.921Z,63.06
2023-01-21T07:23:08.565Z,62.92
2023-01-21T07:25:37.554Z,62.95
2023-01-21T07:28:04.697Z,62.85
2023-01-21T07:30:31.735Z,62.88
2023-01-21T07:32:58.741Z,62.82
2023-01-21T07:35:25.789Z,62.71
2023-01-21T07:37:53.011Z,62.70
2023-01-21T07:40:20.128Z,62.71
2023-01-21T07:42:54.158Z,62.86
2023-01-21T07:45:21.809Z,62.75
2023-01-21T07:47:49.280Z,62.77
2023-01-21T07:50:17.131Z,62.61
2023-01-21T07:52:44.140Z,62.53
2023-01-21T07:55:12.741Z,62.35
2023-01-21T07:57:39.952Z,62.30
2023-01-21T08:00:07.400Z,62.14
2023-01-21T08:02:39.066Z,62.13
2023-01-21T08:05:08.360Z,62.02
2023-01-21T08:07:35.364Z,61.81
2023-01-21T08:10:02.556Z,61.64
2023-01-21T08:12:29.639Z,61.52
2023-01-21T08:15:00.799Z,61.33
2023-01-21T08:17:27.817Z,61.38
2023-01-21T08:19:54.836Z,61.33
2023-01-21T08:22:22.295Z,61.10
2023-01-21T08:24:49.353Z,61.15
2023-01-21T08:27:16.287Z,61.23
2023-01-21T08:29:43.388Z,61.21
2023-01-21T08:32:10.373Z,61.27
2023-01-21T08:34:37.390Z,61.28
2023-01-21T08:37:04.403Z,61.14
2023-01-21T08:39:31.411Z,61.08
2023-01-21T08:41:58.396Z,60.96
2023-01-21T08:44:25.383Z,60.82
2023-01-21T08:46:52.348Z,60.53
2023-01-21T08:49:19.427Z,60.44
2023-01-21T08:51:46.736Z,60.42
2023-01-21T08:54:13.667Z,60.37
2023-01-21T08:56:40.711Z,60.22
2023-01-21T08:59:07.724Z,60.24
2023-01-21T09:01:38.089Z,60.48
2023-01-21T09:04:05.194Z,60.62
2023-01-21T09:06:32.368Z,60.72
2023-01-21T09:08:59.710Z,60.74
2023-01-21T09:11:27.511Z,60.78
2023-01-21T09:13:54.838Z,60.82
2023-01-21T09:16:22.972Z,60.82
2023-01-21T09:18:49.954Z,60.93
2023-01-21T09:21:17.450Z,61.01
2023-01-21T09:23:44.563Z,61.08
2023-01-21T09:26:19.572Z,61.09
2023-01-21T09:28:51.116Z,61.07
2023-01-21T09:31:18.738Z,61.07
2023-01-21T09:33:46.964Z,61.12
2023-01-21T09:36:19.509Z,61.19
2023-01-21T09:38:46.954Z,61.18
2023-01-21T09:41:30.088Z,61.27
2023-01-21T09:44:03.230Z,61.24
2023-01-21T09:46:43.699Z,61.26
2023-01-21T09:49:15.957Z,61.29
2023-01-21T09:51:52.396Z,61.41
2023-01-21T09:54:27.892Z,61.43
2023-01-21T09:57:07.088Z,61.36
2023-01-21T10:00:05.671Z,61.24
2023-01-21T10:02:48.383Z,61.18
2023-01-21T10:05:25.633Z,61.19
2023-01-21T10:08:11.505Z,61.26
2023-01-21T10:10:51.279Z,61.34
2023-01-21T10:13:38.013Z,61.43
2023-01-21T10:16:39.171Z,61.44
2023-01-21T10:19:06.171Z,61.57
2023-01-21T10:21:33.257Z,61.62
2023-01-21T10:24:10.680Z,61.69
2023-01-21T10:26:37.728Z,61.55
2023-01-21T10:29:04.722Z,61.42
2023-01-21T10:31:40.977Z,61.39
2023-01-21T10:34:13.276Z,61.53
2023-01-21T10:37:18.669Z,61.63
2023-01-21T10:40:08.181Z,61.67
2023-01-21T10:42:41.533Z,61.61
2023-01-21T10:45:24.091Z,61.53
2023-01-21T10:47:59.302Z,61.66
2023-01-21T10:50:32.248Z,61.78
2023-01-21T10:53:25.669Z,61.98
2023-01-21T10:56:39.755Z,62.10
2023-01-21T10:59:09.396Z,62.29
2023-01-21T11:01:38.378Z,62.19
2023-01-21T11:04:27.314Z,62.08
2023-01-21T11:07:08.903Z,62.15
2023-01-21T11:09:38.870Z,62.16
2023-01-21T11:12:06.370Z,62.26
2023-01-21T11:14:34.112Z,62.42
2023-01-21T11:17:01.448Z,62.63
2023-01-21T11:19:31.117Z,62.75
2023-01-21T11:22:06.245Z,62.71
2023-01-21T11:24:47.094Z,62.93
2023-01-21T11:27:39.809Z,63.03
2023-01-21T11:30:26.113Z,63.11
2023-01-21T11:32:55.169Z,63.05
2023-01-21T11:35:22.776Z,63.09
2023-01-21T11:37:49.807Z,63.19
2023-01-21T11:40:25.041Z,63.10
2023-01-21T11:42:54.641Z,63.13
2023-01-21T11:45:30.198Z,63.11
2023-01-21T11:47:58.154Z,63.21
2023-01-21T11:50:36.034Z,63.26
2023-01-21T11:53:19.030Z,63.43
2023-01-21T11:55:54.673Z,63.49
2023-01-21T12:10:19.841Z,64.05
2023-01-21T12:12:56.688Z,63.37
2023-01-21T12:15:43.055Z,63.36
2023-01-21T12:18:51.305Z,63.44
2023-01-21T12:21:21.515Z,63.49
2023-01-21T12:23:56.924Z,63.53
2023-01-21T12:26:41.543Z,63.71
2023-01-21T12:29:23.929Z,63.94
2023-01-21T12:31:54.705Z,64.29
2023-01-21T12:34:30.464Z,64.55
2023-01-21T12:37:03.792Z,64.76
2023-01-21T12:39:37.168Z,64.76
2023-01-21T12:42:19.071Z,64.94
2023-01-21T12:44:56.629Z,65.14
2023-01-21T12:47:34.674Z,65.28
2023-01-21T12:50:14.270Z,65.51
2023-01-21T12:52:56.127Z,65.79
2023-01-21T12:56:03.381Z,65.99
2023-01-21T12:58:32.699Z,66.39
2023-01-21T13:01:28.591Z,66.74
2023-01-21T13:03:59.975Z,67.03
2023-01-21T13:06:52.835Z,67.16
2023-01-21T13:09:35.209Z,67.37
2023-01-21T13:12:05.173Z,67.50
2023-01-21T13:14:37.955Z,67.60
2023-01-21T13:17:25.278Z,67.68
2023-01-21T13:19:52.343Z,67.79
2023-01-21T13:22:37.625Z,67.89
2023-01-21T13:25:26.209Z,68.04
2023-01-21T13:28:05.555Z,68.18
2023-01-21T13:30:55.256Z,68.26
2023-01-21T13:33:34.833Z,68.35
2023-01-21T13:36:24.034Z,68.53
2023-01-21T13:39:00.234Z,68.38
2023-01-21T13:41:56.712Z,68.52
2023-01-21T13:44:57.248Z,68.51
2023-01-21T13:47:42.582Z,68.57
2023-01-21T13:50:18.091Z,68.66
2023-01-21T13:53:13.372Z,68.55
2023-01-21T13:56:00.599Z,68.64
2023-01-21T13:58:47.764Z,68.70
2023-01-21T14:01:28.834Z,68.68
2023-01-21T14:04:18.321Z,68.70
2023-01-21T14:06:56.793Z,68.74
2023-01-21T14:09:48.306Z,68.83
2023-01-21T14:12:31.826Z,68.88
2023-01-21T14:15:01.889Z,68.82
2023-01-21T14:17:50.931Z,68.84
2023-01-21T14:20:36.344Z,68.88
2023-01-21T14:23:28.200Z,68.99
2023-01-21T14:26:03.413Z,68.95
2023-01-21T14:28:42.696Z,69.04
2023-01-21T14:31:15.072Z,69.04
2023-01-21T14:33:57.857Z,69.07
2023-01-21T14:36:57.460Z,69.07
2023-01-21T14:40:01.150Z,69.13
2023-01-21T14:43:00.647Z,69.13
2023-01-21T14:45:49.635Z,69.18
2023-01-21T14:48:34.123Z,69.18
2023-01-21T14:51:12.210Z,69.14
2023-01-21T14:53:50.221Z,69.22
2023-01-21T14:56:23.225Z,69.26
2023-01-21T14:59:12.365Z,69.10
2023-01-21T15:01:42.981Z,68.99
2023-01-21T15:04:27.814Z,68.98
2023-01-21T15:07:02.307Z,69.06
2023-01-21T15:09:32.241Z,69.07
2023-01-21T15:12:01.679Z,68.97
2023-01-21T15:14:30.793Z,69.04
2023-01-21T15:16:57.772Z,69.02
2023-01-21T15:19:24.790Z,68.95
2023-01-21T15:22:17.701Z,69.00
2023-01-21T15:25:19.638Z,69.04
2023-01-21T15:28:25.209Z,68.93
2023-01-21T15:31:00.279Z,69.00
2023-01-21T15:33:27.800Z,69.16
2023-01-21T15:35:54.826Z,69.06
2023-01-21T15:38:21.777Z,69.06
2023-01-21T15:41:01.109Z,69.10
2023-01-21T15:43:51.847Z,69.18
2023-01-21T15:46:28.250Z,69.20
2023-01-21T15:48:58.321Z,69.27
2023-01-21T15:52:07.515Z,69.24
2023-01-21T15:54:48.538Z,69.30
2023-01-21T15:57:43.631Z,69.27
2023-01-21T16:00:42.296Z,69.23
2023-01-21T16:03:29.381Z,69.30
2023-01-21T16:06:06.055Z,69.33
2023-01-21T16:08:46.369Z,69.42
2023-01-21T16:11:16.775Z,69.40
2023-01-21T16:13:53.851Z,69.42
2023-01-21T16:16:36.231Z,69.47
2023-01-21T16:19:04.450Z,69.49
2023-01-21T16:21:35.517Z,69.50
2023-01-21T16:24:12.102Z,69.58
2023-01-21T16:26:39.258Z,69.55
2023-01-21T16:29:13.948Z,69.58
2023-01-21T16:31:51.908Z,69.67
2023-01-21T16:34:39.155Z,69.61
2023-01-21T16:37:07.007Z,69.56
2023-01-21T16:39:34.006Z,69.60
2023-01-21T16:42:05.820Z,69.61
2023-01-21T16:44:33.432Z,69.51
2023-01-21T16:47:00.407Z,69.52
2023-01-21T16:49:27.403Z,69.43
2023-01-21T16:51:57.260Z,69.43
2023-01-21T16:54:31.705Z,69.35
2023-01-21T16:56:59.684Z,69.33
2023-01-21T16:59:40.810Z,69.29
2023-01-21T17:02:16.291Z,69.31
2023-01-21T17:04:43.431Z,69.23
2023-01-21T17:07:39.183Z,69.26
2023-01-21T17:10:22.559Z,69.34
2023-01-21T17:13:16.272Z,69.33
2023-01-21T17:16:03.704Z,69.25
2023-01-21T17:18:33.118Z,69.31
2023-01-21T17:21:07.319Z,69.22
2023-01-21T17:23:46.998Z,69.08
2023-01-21T17:26:17.183Z,69.11
2023-01-21T17:29:44.616Z,68.94
2023-01-21T17:32:32.473Z,68.81
2023-01-21T17:35:12.928Z,68.67
2023-01-21T17:37:44.360Z,68.67
2023-01-21T17:40:25.440Z,68.36
2023-01-21T17:42:52.546Z,68.28
2023-01-21T17:45:27.537Z,68.28
2023-01-21T17:48:08.739Z,68.21
2023-01-21T17:50:37.536Z,68.18
2023-01-21T17:53:07.469Z,68.08
2023-01-21T17:55:36.966Z,67.92
2023-01-21T17:58:05.972Z,67.86
2023-01-21T18:00:42.018Z,67.80
2023-01-21T18:03:10.749Z,67.75
2023-01-21T18:05:38.670Z,67.63
2023-01-21T18:08:15.612Z,67.59
2023-01-21T18:10:43.477Z,67.53
2023-01-21T18:13:15.149Z,67.40
2023-01-21T18:15:44.308Z,67.40
2023-01-21T18:18:17.098Z,67.19
2023-01-21T18:20:44.365Z,67.12
2023-01-21T18:23:11.782Z,67.11
2023-01-21T18:25:39.700Z,67.16
2023-01-21T18:28:17.882Z,67.15
2023-01-21T18:30:45.185Z,67.17
2023-01-21T18:33:12.740Z,67.12
2023-01-21T18:35:40.562Z,66.90
2023-01-21T18:38:15.494Z,66.79
2023-01-21T18:40:42.722Z,66.90
2023-01-21T18:43:10.111Z,66.83
2023-01-21T18:45:37.122Z,66.69
2023-01-21T18:48:04.213Z,66.66
2023-01-21T18:50:31.426Z,66.77
2023-01-21T18:52:58.439Z,66.84
2023-01-21T18:55:27.293Z,66.79
2023-01-21T18:57:54.849Z,66.84
2023-01-21T19:00:27.031Z,66.88
2023-01-21T19:02:54.873Z,67.05
2023-01-21T19:05:23.095Z,67.09
2023-01-21T19:07:50.312Z,67.07
2023-01-21T19:10:19.953Z,67.05
2023-01-21T19:12:47.754Z,66.83
2023-01-21T19:15:22.364Z,66.82
2023-01-21T19:17:49.574Z,66.81
2023-01-21T19:20:18.676Z,66.81
2023-01-21T19:22:46.483Z,67.00
2023-01-21T19:25:13.803Z,67.03
2023-01-21T19:27:46.055Z,67.08
2023-01-21T19:30:23.217Z,67.15
2023-01-21T19:32:51.197Z,67.19
2023-01-21T19:35:20.836Z,67.15
2023-01-21T19:37:50.948Z,67.10
2023-01-21T19:40:22.552Z,67.21
2023-01-21T19:42:49.539Z,67.17
2023-01-21T19:45:17.008Z,67.10
2023-01-21T19:47:47.782Z,67.07
2023-01-21T19:50:23.000Z,67.08
2023-01-21T19:52:51.080Z,67.13
2023-01-21T19:55:23.211Z,67.09
2023-01-21T19:57:56.808Z,67.04
2023-01-21T20:50:33.859Z,74.42
2023-01-21T20:53:01.341Z,71.32
2023-01-21T20:55:28.497Z,70.70
2023-01-21T20:57:55.496Z,70.35
2023-01-21T21:00:28.054Z,69.98
2023-01-21T21:02:55.881Z,69.61
2023-01-21T21:05:23.970Z,69.19
2023-01-21T21:07:51.062Z,69.12
2023-01-21T21:10:22.059Z,68.90
2023-01-21T21:12:49.428Z,69.08
2023-01-21T21:15:17.212Z,68.88
2023-01-21T21:17:44.406Z,68.60
2023-01-21T21:20:20.005Z,68.45
2023-01-21T21:22:47.366Z,68.52
2023-01-21T21:25:19.180Z,68.47
2023-01-21T21:27:46.620Z,68.47
2023-01-21T21:30:18.131Z,68.57
2023-01-21T21:32:45.097Z,68.61
2023-01-21T21:35:44.469Z,68.65
2023-01-21T21:38:18.593Z,68.73
2023-01-21T21:40:46.906Z,68.78
2023-01-21T21:43:35.043Z,68.81
2023-01-21T21:46:26.915Z,68.75
2023-01-21T21:48:55.274Z,68.80
2023-01-21T21:51:22.725Z,68.87
2023-01-21T21:53:50.032Z,68.94
2023-01-21T21:56:22.844Z,68.89
2023-01-21T21:58:50.218Z,69.02
2023-01-21T22:01:25.348Z,69.11
2023-01-21T22:03:52.851Z,69.04
2023-01-21T22:06:21.618Z,69.14
2023-01-21T22:08:48.837Z,69.09
2023-01-21T22:11:18.012Z,69.17
2023-01-21T22:13:50.314Z,69.18
2023-01-21T22:16:19.423Z,69.19
2023-01-21T22:18:46.541Z,69.21
2023-01-21T22:21:13.519Z,69.16
2023-01-21T22:23:40.495Z,69.28
2023-01-21T22:26:09.352Z,69.19
2023-01-21T22:28:36.564Z,69.37
2023-01-21T22:31:04.837Z,69.76
2023-01-21T22:33:33.196Z,69.68
2023-01-21T22:36:07.485Z,69.53
2023-01-21T22:38:34.938Z,69.50
2023-01-21T22:41:02.028Z,69.48
2023-01-21T22:43:29.697Z,69.56
2023-01-21T22:45:57.150Z,69.50
2023-01-21T22:48:24.354Z,69.41
2023-01-21T22:50:57.626Z,69.57
2023-01-21T22:53:24.814Z,69.64
2023-01-21T22:56:03.305Z,69.66
2023-01-21T22:58:31.300Z,69.73
2023-01-21T23:00:58.868Z,69.71
2023-01-21T23:03:26.071Z,69.72
2023-01-21T23:05:53.270Z,69.80
2023-01-21T23:08:20.493Z,69.76
2023-01-21T23:10:47.897Z,69.78
2023-01-21T23:13:15.337Z,70.16
2023-01-21T23:15:48.150Z,70.24
2023-01-21T23:18:15.287Z,70.45
2023-01-21T23:20:43.602Z,70.46
2023-01-21T23:23:11.015Z,70.50
2023-01-21T23:25:42.227Z,70.54
2023-01-21T23:28:12.008Z,70.61
2023-01-21T23:30:39.045Z,70.63
2023-01-21T23:33:07.435Z,70.85
2023-01-21T23:35:34.681Z,70.54
2023-01-21T23:38:02.429Z,70.41
2023-01-21T23:40:29.487Z,70.28
2023-01-21T23:42:57.347Z,70.15
2023-01-21T23:45:24.393Z,70.20
2023-01-21T23:47:51.549Z,70.17
2023-01-21T23:50:20.282Z,70.04
2023-01-21T23:52:47.486Z,70.03
2023-01-21T23:55:15.057Z,70.15
2023-01-21T23:57:42.019Z,70.08
